KMSY/MSY METAR and TAF weather

Enter ICAO airport designator
Station Type Date Time Source
KMSY METAR 2020/09/19 02:53 UTC NOAA

KMSY 190253Z 04011KT 10SM FEW110 OVC140 24/20 A2996 RMK AO2 RAE0155B31E52 SLP147 P0000 60000 T02440200 58001


Station Type Date Time Source
KMSY Decoded METAR 2020/09/19 02:53 UTC NOAA

NEW ORLEANS INTERNATIONAL AIRPORT, LA, United States (KMSY) 30-00N 90-15W 5M
Sep 18, 2020 - 10:53 PM EDT / 2020.09.19 0253 UTC
Wind: from the NE (040 degrees) at 13 MPH (11 KT):0
Visibility: 10 mile(s):0
Sky conditions: overcast
Precipitation last hour: A trace
Temperature: 75.9 F (24.4 C)
Dew Point: 68.0 F (20.0 C)
Relative Humidity: 76%
Pressure (altimeter): 29.96 in. Hg (1014 hPa)
Pressure tendency: 0.00 inches (0.1 hPa) lower than three hours ago
ob: KMSY 190253Z 04011KT 10SM FEW110 OVC140 24/20 A2996 RMK AO2 RAE0155B31E52 SLP147 P0000 60000 T02440200 58001
cycle: 3

Station Type Date Time Source
KMSY TAF 2020/09/18 18:51 UTC NOAA

TAF KMSY 181749Z 1818/1924 02005KT P6SM -RA FEW040 OVC140
FM190400 04009KT P6SM OVC070
FM191000 04010G19KT P6SM OVC035
FM191200 05011G21KT P6SM OVC015
FM191400 05013G22KT P6SM OVC008

Example: see airport list